sensor_id;sensor_type;location;lat;lon;timestamp;temperature;humidity
262;DHT22;114;48.260;10.988;2023-09-18T00:02:26;15.70;1.00
262;DHT22;114;48.260;10.988;2023-09-18T00:04:52;15.60;1.00
262;DHT22;114;48.260;10.988;2023-09-18T00:07:18;15.60;1.00
262;DHT22;114;48.260;10.988;2023-09-18T00:09:44;15.60;1.00
262;DHT22;114;48.260;10.988;2023-09-18T00:12:09;15.50;1.00
262;DHT22;114;48.260;10.988;2023-09-18T00:14:38;15.50;1.00
262;DHT22;114;48.260;10.988;2023-09-18T00:17:05;15.50;1.00
262;DHT22;114;48.260;10.988;2023-09-18T00:19:30;15.50;1.00
262;DHT22;114;48.260;10.988;2023-09-18T00:21:58;15.40;1.00
262;DHT22;114;48.260;10.988;2023-09-18T00:24:26;15.40;1.00
262;DHT22;114;48.260;10.988;2023-09-18T00:26:52;15.40;1.00
262;DHT22;114;48.260;10.988;2023-09-18T00:29:18;15.40;1.00
262;DHT22;114;48.260;10.988;2023-09-18T00:31:44;15.30;1.00
262;DHT22;114;48.260;10.988;2023-09-18T00:34:10;15.30;1.00
262;DHT22;114;48.260;10.988;2023-09-18T00:36:36;15.20;1.00
262;DHT22;114;48.260;10.988;2023-09-18T00:39:03;15.20;1.00
262;DHT22;114;48.260;10.988;2023-09-18T00:41:29;15.20;1.00
262;DHT22;114;48.260;10.988;2023-09-18T00:43:55;15.20;1.00
262;DHT22;114;48.260;10.988;2023-09-18T00:46:22;15.20;1.00
262;DHT22;114;48.260;10.988;2023-09-18T00:48:48;15.10;1.00
262;DHT22;114;48.260;10.988;2023-09-18T00:51:14;15.10;1.00
262;DHT22;114;48.260;10.988;2023-09-18T00:53:44;15.10;1.00
262;DHT22;114;48.260;10.988;2023-09-18T00:56:11;15.10;1.00
262;DHT22;114;48.260;10.988;2023-09-18T00:58:37;15.10;1.00
262;DHT22;114;48.260;10.988;2023-09-18T01:01:04;15.10;1.00
262;DHT22;114;48.260;10.988;2023-09-18T01:03:30;15.10;1.00
262;DHT22;114;48.260;10.988;2023-09-18T01:05:56;15.00;1.00
262;DHT22;114;48.260;10.988;2023-09-18T01:08:22;14.90;1.00
262;DHT22;114;48.260;10.988;2023-09-18T01:11:06;14.90;1.00
262;DHT22;114;48.260;10.988;2023-09-18T01:13:54;14.80;1.00
262;DHT22;114;48.260;10.988;2023-09-18T01:16:48;14.80;1.00
262;DHT22;114;48.260;10.988;2023-09-18T01:19:16;14.80;1.00
262;DHT22;114;48.260;10.988;2023-09-18T01:21:44;14.80;1.00
262;DHT22;114;48.260;10.988;2023-09-18T01:24:10;14.80;1.00
262;DHT22;114;48.260;10.988;2023-09-18T01:26:35;14.80;1.00
262;DHT22;114;48.260;10.988;2023-09-18T01:29:02;14.80;1.00
262;DHT22;114;48.260;10.988;2023-09-18T01:31:28;14.80;1.00
262;DHT22;114;48.260;10.988;2023-09-18T01:33:54;14.80;1.00
262;DHT22;114;48.260;10.988;2023-09-18T01:36:21;14.80;1.00
262;DHT22;114;48.260;10.988;2023-09-18T01:38:47;14.80;1.00
262;DHT22;114;48.260;10.988;2023-09-18T01:41:13;14.70;1.00
262;DHT22;114;48.260;10.988;2023-09-18T01:43:39;14.70;1.00
262;DHT22;114;48.260;10.988;2023-09-18T01:46:05;14.70;1.00
262;DHT22;114;48.260;10.988;2023-09-18T01:48:31;14.70;1.00
262;DHT22;114;48.260;10.988;2023-09-18T01:50:57;14.70;1.00
262;DHT22;114;48.260;10.988;2023-09-18T01:53:23;14.70;1.00
262;DHT22;114;48.260;10.988;2023-09-18T01:55:49;14.70;1.00
262;DHT22;114;48.260;10.988;2023-09-18T01:58:15;14.70;1.00
262;DHT22;114;48.260;10.988;2023-09-18T02:00:41;14.70;1.00
262;DHT22;114;48.260;10.988;2023-09-18T02:03:07;14.80;1.00
262;DHT22;114;48.260;10.988;2023-09-18T02:05:32;14.80;1.00
262;DHT22;114;48.260;10.988;2023-09-18T02:07:58;14.90;1.00
262;DHT22;114;48.260;10.988;2023-09-18T02:10:24;14.90;1.00
262;DHT22;114;48.260;10.988;2023-09-18T02:12:50;14.90;1.00
262;DHT22;114;48.260;10.988;2023-09-18T02:15:15;14.90;1.00
262;DHT22;114;48.260;10.988;2023-09-18T02:17:42;14.80;1.00
262;DHT22;114;48.260;10.988;2023-09-18T02:20:08;14.80;1.00
262;DHT22;114;48.260;10.988;2023-09-18T02:22:37;14.80;1.00
262;DHT22;114;48.260;10.988;2023-09-18T02:25:06;14.80;1.00
262;DHT22;114;48.260;10.988;2023-09-18T02:27:32;14.80;1.00
262;DHT22;114;48.260;10.988;2023-09-18T02:29:58;14.80;1.00
262;DHT22;114;48.260;10.988;2023-09-18T02:32:24;14.80;1.00
262;DHT22;114;48.260;10.988;2023-09-18T02:34:49;14.80;1.00
262;DHT22;114;48.260;10.988;2023-09-18T02:37:15;14.80;1.00
262;DHT22;114;48.260;10.988;2023-09-18T02:39:41;14.70;1.00
262;DHT22;114;48.260;10.988;2023-09-18T02:42:07;14.70;1.00
262;DHT22;114;48.260;10.988;2023-09-18T02:44:32;14.70;1.00
262;DHT22;114;48.260;10.988;2023-09-18T02:46:58;14.70;1.00
262;DHT22;114;48.260;10.988;2023-09-18T02:49:25;14.70;1.00
262;DHT22;114;48.260;10.988;2023-09-18T02:51:50;14.70;1.00
262;DHT22;114;48.260;10.988;2023-09-18T02:54:16;14.60;1.00
262;DHT22;114;48.260;10.988;2023-09-18T02:56:42;14.60;1.00
262;DHT22;114;48.260;10.988;2023-09-18T02:59:08;14.50;1.00
262;DHT22;114;48.260;10.988;2023-09-18T03:01:34;14.50;1.00
262;DHT22;114;48.260;10.988;2023-09-18T03:04:00;14.50;1.00
262;DHT22;114;48.260;10.988;2023-09-18T03:06:26;14.50;1.00
262;DHT22;114;48.260;10.988;2023-09-18T03:08:52;14.40;1.00
262;DHT22;114;48.260;10.988;2023-09-18T03:11:18;14.40;1.00
262;DHT22;114;48.260;10.988;2023-09-18T03:13:45;14.40;1.00
262;DHT22;114;48.260;10.988;2023-09-18T03:16:14;14.40;1.00
262;DHT22;114;48.260;10.988;2023-09-18T03:18:40;14.40;1.00
262;DHT22;114;48.260;10.988;2023-09-18T03:21:06;14.40;1.00
262;DHT22;114;48.260;10.988;2023-09-18T03:23:31;14.40;1.00
262;DHT22;114;48.260;10.988;2023-09-18T03:25:57;14.40;1.00
262;DHT22;114;48.260;10.988;2023-09-18T03:28:25;14.40;1.00
262;DHT22;114;48.260;10.988;2023-09-18T03:30:50;14.40;1.00
262;DHT22;114;48.260;10.988;2023-09-18T03:33:16;14.40;1.00
262;DHT22;114;48.260;10.988;2023-09-18T03:35:48;14.30;1.00
262;DHT22;114;48.260;10.988;2023-09-18T03:38:14;14.30;1.00
262;DHT22;114;48.260;10.988;2023-09-18T03:40:40;14.20;1.00
262;DHT22;114;48.260;10.988;2023-09-18T03:43:06;14.20;1.00
262;DHT22;114;48.260;10.988;2023-09-18T03:45:32;14.10;1.00
262;DHT22;114;48.260;10.988;2023-09-18T03:47:58;14.10;1.00
262;DHT22;114;48.260;10.988;2023-09-18T03:50:24;14.10;1.00
262;DHT22;114;48.260;10.988;2023-09-18T03:52:50;14.10;1.00
262;DHT22;114;48.260;10.988;2023-09-18T03:55:16;14.10;1.00
262;DHT22;114;48.260;10.988;2023-09-18T03:57:42;14.00;1.00
262;DHT22;114;48.260;10.988;2023-09-18T04:00:08;14.10;1.00
262;DHT22;114;48.260;10.988;2023-09-18T04:02:34;14.10;1.00
262;DHT22;114;48.260;10.988;2023-09-18T04:05:00;13.90;1.00
262;DHT22;114;48.260;10.988;2023-09-18T04:07:27;13.90;1.00
262;DHT22;114;48.260;10.988;2023-09-18T04:09:52;13.90;1.00
262;DHT22;114;48.260;10.988;2023-09-18T04:12:18;13.90;1.00
262;DHT22;114;48.260;10.988;2023-09-18T04:14:44;13.90;1.00
262;DHT22;114;48.260;10.988;2023-09-18T04:17:10;13.80;1.00
262;DHT22;114;48.260;10.988;2023-09-18T04:19:36;13.80;1.00
262;DHT22;114;48.260;10.988;2023-09-18T04:22:02;13.80;1.00
262;DHT22;114;48.260;10.988;2023-09-18T04:24:28;13.70;1.00
262;DHT22;114;48.260;10.988;2023-09-18T04:26:53;13.70;1.00
262;DHT22;114;48.260;10.988;2023-09-18T04:29:19;13.60;1.00
262;DHT22;114;48.260;10.988;2023-09-18T04:31:45;13.50;1.00
262;DHT22;114;48.260;10.988;2023-09-18T04:34:11;13.50;1.00
262;DHT22;114;48.260;10.988;2023-09-18T04:36:37;13.50;1.00
262;DHT22;114;48.260;10.988;2023-09-18T04:39:06;13.40;1.00
262;DHT22;114;48.260;10.988;2023-09-18T04:41:33;13.40;1.00
262;DHT22;114;48.260;10.988;2023-09-18T04:43:59;13.40;1.00
262;DHT22;114;48.260;10.988;2023-09-18T04:46:25;13.40;1.00
262;DHT22;114;48.260;10.988;2023-09-18T04:48:51;13.40;1.00
262;DHT22;114;48.260;10.988;2023-09-18T04:51:17;13.50;1.00
262;DHT22;114;48.260;10.988;2023-09-18T04:53:43;13.40;1.00
262;DHT22;114;48.260;10.988;2023-09-18T04:56:09;13.40;1.00
262;DHT22;114;48.260;10.988;2023-09-18T04:58:38;13.30;1.00
262;DHT22;114;48.260;10.988;2023-09-18T05:01:04;13.30;1.00
262;DHT22;114;48.260;10.988;2023-09-18T05:03:34;13.20;1.00
262;DHT22;114;48.260;10.988;2023-09-18T05:06:00;13.30;1.00
262;DHT22;114;48.260;10.988;2023-09-18T05:08:26;13.30;1.00
262;DHT22;114;48.260;10.988;2023-09-18T05:10:51;13.30;1.00
262;DHT22;114;48.260;10.988;2023-09-18T05:13:17;13.40;1.00
262;DHT22;114;48.260;10.988;2023-09-18T05:15:42;13.40;1.00
262;DHT22;114;48.260;10.988;2023-09-18T05:18:08;13.50;1.00
262;DHT22;114;48.260;10.988;2023-09-18T05:20:34;13.70;1.00
262;DHT22;114;48.260;10.988;2023-09-18T05:23:01;14.10;1.00
262;DHT22;114;48.260;10.988;2023-09-18T05:25:29;14.30;1.00
262;DHT22;114;48.260;10.988;2023-09-18T05:27:59;14.60;1.00
262;DHT22;114;48.260;10.988;2023-09-18T05:30:27;14.60;1.00
262;DHT22;114;48.260;10.988;2023-09-18T05:32:55;14.70;1.00
262;DHT22;114;48.260;10.988;2023-09-18T05:35:21;14.60;1.00
262;DHT22;114;48.260;10.988;2023-09-18T05:37:49;14.60;1.00
262;DHT22;114;48.260;10.988;2023-09-18T05:40:22;14.70;1.00
262;DHT22;114;48.260;10.988;2023-09-18T05:42:47;14.90;1.00
262;DHT22;114;48.260;10.988;2023-09-18T05:45:14;14.80;1.00
262;DHT22;114;48.260;10.988;2023-09-18T05:47:42;14.70;1.00
262;DHT22;114;48.260;10.988;2023-09-18T05:50:10;14.70;1.00
262;DHT22;114;48.260;10.988;2023-09-18T05:52:40;14.70;1.00
262;DHT22;114;48.260;10.988;2023-09-18T05:55:06;14.80;1.00
262;DHT22;114;48.260;10.988;2023-09-18T05:57:34;14.90;1.00
262;DHT22;114;48.260;10.988;2023-09-18T06:00:00;15.00;1.00
262;DHT22;114;48.260;10.988;2023-09-18T06:02:26;15.00;1.00
262;DHT22;114;48.260;10.988;2023-09-18T06:04:56;15.10;1.00
262;DHT22;114;48.260;10.988;2023-09-18T06:07:26;15.10;1.00
262;DHT22;114;48.260;10.988;2023-09-18T06:09:52;15.20;1.00
262;DHT22;114;48.260;10.988;2023-09-18T06:12:18;15.30;1.00
262;DHT22;114;48.260;10.988;2023-09-18T06:14:44;15.30;1.00
262;DHT22;114;48.260;10.988;2023-09-18T06:17:12;15.30;1.00
262;DHT22;114;48.260;10.988;2023-09-18T06:19:37;15.40;1.00
262;DHT22;114;48.260;10.988;2023-09-18T06:22:04;15.40;1.00
262;DHT22;114;48.260;10.988;2023-09-18T06:24:30;15.30;1.00
262;DHT22;114;48.260;10.988;2023-09-18T06:26:56;15.30;1.00
262;DHT22;114;48.260;10.988;2023-09-18T06:29:21;15.40;1.00
262;DHT22;114;48.260;10.988;2023-09-18T06:31:49;15.50;1.00
262;DHT22;114;48.260;10.988;2023-09-18T06:34:15;15.50;1.00
262;DHT22;114;48.260;10.988;2023-09-18T06:36:40;15.60;1.00
262;DHT22;114;48.260;10.988;2023-09-18T06:39:06;15.70;1.00
262;DHT22;114;48.260;10.988;2023-09-18T06:41:32;15.80;1.00
262;DHT22;114;48.260;10.988;2023-09-18T06:43:59;16.00;1.00
262;DHT22;114;48.260;10.988;2023-09-18T06:46:28;16.30;1.00
262;DHT22;114;48.260;10.988;2023-09-18T06:48:54;16.70;1.00
262;DHT22;114;48.260;10.988;2023-09-18T06:51:19;16.90;1.00
262;DHT22;114;48.260;10.988;2023-09-18T06:53:45;17.10;1.00
262;DHT22;114;48.260;10.988;2023-09-18T06:56:11;17.20;1.00
262;DHT22;114;48.260;10.988;2023-09-18T06:58:38;17.30;1.00
262;DHT22;114;48.260;10.988;2023-09-18T07:01:04;17.20;1.00
262;DHT22;114;48.260;10.988;2023-09-18T07:03:32;17.30;1.00
262;DHT22;114;48.260;10.988;2023-09-18T07:06:00;17.50;1.00
262;DHT22;114;48.260;10.988;2023-09-18T07:08:26;17.60;1.00
262;DHT22;114;48.260;10.988;2023-09-18T07:10:51;17.80;1.00
262;DHT22;114;48.260;10.988;2023-09-18T07:13:17;18.10;1.00
262;DHT22;114;48.260;10.988;2023-09-18T07:15:43;18.30;1.00
262;DHT22;114;48.260;10.988;2023-09-18T07:18:10;18.50;1.00
262;DHT22;114;48.260;10.988;2023-09-18T07:20:40;18.60;1.00
262;DHT22;114;48.260;10.988;2023-09-18T07:23:05;18.70;1.00
262;DHT22;114;48.260;10.988;2023-09-18T07:25:31;18.80;1.00
262;DHT22;114;48.260;10.988;2023-09-18T07:27:57;18.80;1.00
262;DHT22;114;48.260;10.988;2023-09-18T07:30:22;18.80;1.00
262;DHT22;114;48.260;10.988;2023-09-18T07:32:55;19.00;1.00
262;DHT22;114;48.260;10.988;2023-09-18T07:35:24;19.20;1.00
262;DHT22;114;48.260;10.988;2023-09-18T07:37:50;19.50;1.00
262;DHT22;114;48.260;10.988;2023-09-18T07:40:16;19.60;1.00
262;DHT22;114;48.260;10.988;2023-09-18T07:42:42;19.80;1.00
262;DHT22;114;48.260;10.988;2023-09-18T07:45:11;19.80;1.00
262;DHT22;114;48.260;10.988;2023-09-18T07:47:37;19.90;1.00
262;DHT22;114;48.260;10.988;2023-09-18T07:50:03;20.00;1.00
262;DHT22;114;48.260;10.988;2023-09-18T07:52:29;20.20;1.00
262;DHT22;114;48.260;10.988;2023-09-18T07:54:57;20.30;1.00
262;DHT22;114;48.260;10.988;2023-09-18T07:57:23;20.30;1.00
262;DHT22;114;48.260;10.988;2023-09-18T07:59:50;20.40;1.00
262;DHT22;114;48.260;10.988;2023-09-18T08:02:16;20.40;1.00
262;DHT22;114;48.260;10.988;2023-09-18T08:04:43;20.60;1.00
262;DHT22;114;48.260;10.988;2023-09-18T08:07:09;20.80;1.00
262;DHT22;114;48.260;10.988;2023-09-18T08:09:35;21.00;1.00
262;DHT22;114;48.260;10.988;2023-09-18T08:12:05;21.20;1.00
262;DHT22;114;48.260;10.988;2023-09-18T08:14:31;21.50;1.00
262;DHT22;114;48.260;10.988;2023-09-18T08:17:00;21.40;1.00
262;DHT22;114;48.260;10.988;2023-09-18T08:19:28;21.40;1.00
262;DHT22;114;48.260;10.988;2023-09-18T08:21:54;21.40;1.00
262;DHT22;114;48.260;10.988;2023-09-18T08:24:21;21.60;1.00
262;DHT22;114;48.260;10.988;2023-09-18T08:26:48;21.60;1.00
262;DHT22;114;48.260;10.988;2023-09-18T08:29:14;21.70;1.00
262;DHT22;114;48.260;10.988;2023-09-18T08:31:41;21.80;1.00
262;DHT22;114;48.260;10.988;2023-09-18T08:34:06;21.80;1.00
262;DHT22;114;48.260;10.988;2023-09-18T08:36:33;21.90;1.00
262;DHT22;114;48.260;10.988;2023-09-18T08:38:58;21.80;1.00
262;DHT22;114;48.260;10.988;2023-09-18T08:41:28;21.90;1.00
262;DHT22;114;48.260;10.988;2023-09-18T08:44:02;22.00;1.00
262;DHT22;114;48.260;10.988;2023-09-18T08:46:29;22.00;1.00
262;DHT22;114;48.260;10.988;2023-09-18T08:48:56;22.00;1.00
262;DHT22;114;48.260;10.988;2023-09-18T08:51:23;22.20;1.00
262;DHT22;114;48.260;10.988;2023-09-18T08:53:49;22.30;1.00
262;DHT22;114;48.260;10.988;2023-09-18T08:56:17;22.50;1.00
262;DHT22;114;48.260;10.988;2023-09-18T08:58:43;22.60;1.00
262;DHT22;114;48.260;10.988;2023-09-18T09:01:10;22.70;1.00
262;DHT22;114;48.260;10.988;2023-09-18T09:03:43;22.90;1.00
262;DHT22;114;48.260;10.988;2023-09-18T09:06:11;23.30;1.00
262;DHT22;114;48.260;10.988;2023-09-18T09:08:37;23.50;1.00
262;DHT22;114;48.260;10.988;2023-09-18T09:11:04;24.00;1.00
262;DHT22;114;48.260;10.988;2023-09-18T09:13:29;24.30;1.00
262;DHT22;114;48.260;10.988;2023-09-18T09:15:58;24.60;1.00
262;DHT22;114;48.260;10.988;2023-09-18T09:18:29;25.10;1.00
262;DHT22;114;48.260;10.988;2023-09-18T09:20:56;25.00;1.00
262;DHT22;114;48.260;10.988;2023-09-18T09:23:24;25.00;1.00
262;DHT22;114;48.260;10.988;2023-09-18T09:25:50;25.10;1.00
262;DHT22;114;48.260;10.988;2023-09-18T09:28:15;25.20;1.00
262;DHT22;114;48.260;10.988;2023-09-18T09:30:44;24.90;1.00
262;DHT22;114;48.260;10.988;2023-09-18T09:33:12;24.80;1.00
262;DHT22;114;48.260;10.988;2023-09-18T09:35:38;24.60;1.00
262;DHT22;114;48.260;10.988;2023-09-18T09:38:09;24.60;1.00
262;DHT22;114;48.260;10.988;2023-09-18T09:40:36;24.40;1.00
262;DHT22;114;48.260;10.988;2023-09-18T09:43:03;24.40;1.00
262;DHT22;114;48.260;10.988;2023-09-18T09:45:33;24.50;1.00
262;DHT22;114;48.260;10.988;2023-09-18T09:48:04;24.30;1.00
262;DHT22;114;48.260;10.988;2023-09-18T09:50:44;24.10;1.00
262;DHT22;114;48.260;10.988;2023-09-18T09:53:14;23.90;1.00
262;DHT22;114;48.260;10.988;2023-09-18T09:55:40;24.00;1.00
262;DHT22;114;48.260;10.988;2023-09-18T09:58:07;24.10;1.00
262;DHT22;114;48.260;10.988;2023-09-18T10:00:39;24.20;1.00
262;DHT22;114;48.260;10.988;2023-09-18T10:03:13;24.20;1.00
262;DHT22;114;48.260;10.988;2023-09-18T10:05:43;24.20;1.00
262;DHT22;114;48.260;10.988;2023-09-18T10:08:17;24.20;1.00
262;DHT22;114;48.260;10.988;2023-09-18T10:10:46;24.00;1.00
262;DHT22;114;48.260;10.988;2023-09-18T10:13:18;23.80;1.00
262;DHT22;114;48.260;10.988;2023-09-18T10:15:48;23.80;1.00
262;DHT22;114;48.260;10.988;2023-09-18T10:18:28;23.90;1.00
262;DHT22;114;48.260;10.988;2023-09-18T10:21:06;23.90;1.00
262;DHT22;114;48.260;10.988;2023-09-18T10:23:59;23.50;1.00
262;DHT22;114;48.260;10.988;2023-09-18T10:26:32;23.20;1.00
262;DHT22;114;48.260;10.988;2023-09-18T10:29:04;23.30;1.00
262;DHT22;114;48.260;10.988;2023-09-18T10:31:33;23.30;1.00
262;DHT22;114;48.260;10.988;2023-09-18T10:34:01;23.50;1.00
262;DHT22;114;48.260;10.988;2023-09-18T10:36:29;23.70;1.00
262;DHT22;114;48.260;10.988;2023-09-18T10:38:56;23.90;1.00
262;DHT22;114;48.260;10.988;2023-09-18T10:41:25;23.80;1.00
262;DHT22;114;48.260;10.988;2023-09-18T10:43:53;23.40;1.00
262;DHT22;114;48.260;10.988;2023-09-18T10:46:20;23.30;1.00
262;DHT22;114;48.260;10.988;2023-09-18T10:48:47;23.60;1.00
262;DHT22;114;48.260;10.988;2023-09-18T10:51:13;23.30;1.00
262;DHT22;114;48.260;10.988;2023-09-18T10:53:40;23.20;1.00
262;DHT22;114;48.260;10.988;2023-09-18T10:56:06;23.10;1.00
262;DHT22;114;48.260;10.988;2023-09-18T10:58:33;22.70;1.00
262;DHT22;114;48.260;10.988;2023-09-18T11:01:02;22.40;1.00
262;DHT22;114;48.260;10.988;2023-09-18T11:03:31;22.30;1.00
262;DHT22;114;48.260;10.988;2023-09-18T11:06:08;22.20;1.00
262;DHT22;114;48.260;10.988;2023-09-18T11:08:48;22.00;1.00
262;DHT22;114;48.260;10.988;2023-09-18T11:11:17;21.90;1.00
262;DHT22;114;48.260;10.988;2023-09-18T11:13:47;21.70;1.00
262;DHT22;114;48.260;10.988;2023-09-18T11:16:18;21.40;1.00
262;DHT22;114;48.260;10.988;2023-09-18T11:19:08;21.20;1.00
262;DHT22;114;48.260;10.988;2023-09-18T11:21:35;20.90;1.00
262;DHT22;114;48.260;10.988;2023-09-18T11:24:04;20.80;1.00
262;DHT22;114;48.260;10.988;2023-09-18T11:26:32;20.60;1.00
262;DHT22;114;48.260;10.988;2023-09-18T11:29:05;20.50;1.00
262;DHT22;114;48.260;10.988;2023-09-18T11:31:56;20.40;1.00
262;DHT22;114;48.260;10.988;2023-09-18T11:34:28;20.30;1.00
262;DHT22;114;48.260;10.988;2023-09-18T11:36:58;20.20;1.00
262;DHT22;114;48.260;10.988;2023-09-18T11:39:35;20.00;1.00
262;DHT22;114;48.260;10.988;2023-09-18T11:42:12;19.80;1.00
262;DHT22;114;48.260;10.988;2023-09-18T11:44:39;19.50;1.00
262;DHT22;114;48.260;10.988;2023-09-18T11:47:13;19.30;1.00
262;DHT22;114;48.260;10.988;2023-09-18T11:49:56;19.20;1.00
262;DHT22;114;48.260;10.988;2023-09-18T11:52:28;19.00;1.00
262;DHT22;114;48.260;10.988;2023-09-18T11:54:56;18.80;1.00
262;DHT22;114;48.260;10.988;2023-09-18T11:57:22;18.70;1.00
262;DHT22;114;48.260;10.988;2023-09-18T11:59:49;18.70;1.00
262;DHT22;114;48.260;10.988;2023-09-18T12:02:26;18.50;1.00
262;DHT22;114;48.260;10.988;2023-09-18T12:04:56;18.40;1.00
262;DHT22;114;48.260;10.988;2023-09-18T12:07:22;18.30;1.00
262;DHT22;114;48.260;10.988;2023-09-18T12:09:49;18.20;1.00
262;DHT22;114;48.260;10.988;2023-09-18T12:12:17;18.20;1.00
262;DHT22;114;48.260;10.988;2023-09-18T12:14:43;17.90;1.00
262;DHT22;114;48.260;10.988;2023-09-18T12:17:14;17.80;1.00
262;DHT22;114;48.260;10.988;2023-09-18T12:19:51;17.70;1.00
262;DHT22;114;48.260;10.988;2023-09-18T12:22:23;17.60;1.00
262;DHT22;114;48.260;10.988;2023-09-18T12:24:50;17.60;1.00
262;DHT22;114;48.260;10.988;2023-09-18T12:27:15;17.50;1.00
262;DHT22;114;48.260;10.988;2023-09-18T12:29:42;17.50;1.00
262;DHT22;114;48.260;10.988;2023-09-18T12:32:11;17.60;1.00
262;DHT22;114;48.260;10.988;2023-09-18T12:34:43;17.60;1.00
262;DHT22;114;48.260;10.988;2023-09-18T12:37:09;17.60;1.00
262;DHT22;114;48.260;10.988;2023-09-18T12:39:37;17.70;1.00
262;DHT22;114;48.260;10.988;2023-09-18T12:42:04;17.80;1.00
262;DHT22;114;48.260;10.988;2023-09-18T12:44:30;17.90;1.00
262;DHT22;114;48.260;10.988;2023-09-18T12:46:56;18.00;1.00
262;DHT22;114;48.260;10.988;2023-09-18T12:49:23;18.10;1.00
262;DHT22;114;48.260;10.988;2023-09-18T12:57:05;18.20;1.00
262;DHT22;114;48.260;10.988;2023-09-18T12:59:33;18.10;1.00
262;DHT22;114;48.260;10.988;2023-09-18T13:01:59;18.10;1.00
262;DHT22;114;48.260;10.988;2023-09-18T13:04:25;18.00;1.00
262;DHT22;114;48.260;10.988;2023-09-18T13:07:05;18.00;1.00
262;DHT22;114;48.260;10.988;2023-09-18T13:09:31;17.90;1.00
262;DHT22;114;48.260;10.988;2023-09-18T13:11:57;17.90;1.00
262;DHT22;114;48.260;10.988;2023-09-18T13:14:24;17.90;1.00
262;DHT22;114;48.260;10.988;2023-09-18T13:16:50;18.00;1.00
262;DHT22;114;48.260;10.988;2023-09-18T13:19:17;18.10;1.00
262;DHT22;114;48.260;10.988;2023-09-18T13:21:49;18.10;1.00
262;DHT22;114;48.260;10.988;2023-09-18T13:24:28;18.00;1.00
262;DHT22;114;48.260;10.988;2023-09-18T13:26:55;18.10;1.00
262;DHT22;114;48.260;10.988;2023-09-18T13:29:23;18.10;1.00
262;DHT22;114;48.260;10.988;2023-09-18T13:31:49;18.30;1.00
262;DHT22;114;48.260;10.988;2023-09-18T13:34:15;18.30;1.00
262;DHT22;114;48.260;10.988;2023-09-18T13:36:44;18.30;1.00
262;DHT22;114;48.260;10.988;2023-09-18T13:39:11;18.30;1.00
262;DHT22;114;48.260;10.988;2023-09-18T13:41:37;18.40;1.00
262;DHT22;114;48.260;10.988;2023-09-18T13:44:03;18.40;1.00
262;DHT22;114;48.260;10.988;2023-09-18T13:46:29;18.50;1.00
262;DHT22;114;48.260;10.988;2023-09-18T13:48:55;18.70;1.00
262;DHT22;114;48.260;10.988;2023-09-18T13:51:20;19.00;1.00
262;DHT22;114;48.260;10.988;2023-09-18T13:53:46;19.30;1.00
262;DHT22;114;48.260;10.988;2023-09-18T13:56:14;19.50;1.00
262;DHT22;114;48.260;10.988;2023-09-18T13:58:39;19.60;1.00
262;DHT22;114;48.260;10.988;2023-09-18T14:01:07;19.90;1.00
262;DHT22;114;48.260;10.988;2023-09-18T14:03:33;20.00;1.00
262;DHT22;114;48.260;10.988;2023-09-18T14:05:59;20.10;1.00
262;DHT22;114;48.260;10.988;2023-09-18T14:08:25;20.30;1.00
262;DHT22;114;48.260;10.988;2023-09-18T14:10:51;20.60;1.00
262;DHT22;114;48.260;10.988;2023-09-18T14:13:16;20.80;1.00
262;DHT22;114;48.260;10.988;2023-09-18T14:15:42;20.80;1.00
262;DHT22;114;48.260;10.988;2023-09-18T14:18:09;20.70;1.00
262;DHT22;114;48.260;10.988;2023-09-18T14:20:35;20.80;1.00
262;DHT22;114;48.260;10.988;2023-09-18T14:23:01;20.90;1.00
262;DHT22;114;48.260;10.988;2023-09-18T14:25:28;21.00;1.00
262;DHT22;114;48.260;10.988;2023-09-18T14:27:54;20.90;1.00
262;DHT22;114;48.260;10.988;2023-09-18T14:30:20;20.90;1.00
262;DHT22;114;48.260;10.988;2023-09-18T14:32:45;20.60;1.00
262;DHT22;114;48.260;10.988;2023-09-18T14:35:11;20.40;1.00
262;DHT22;114;48.260;10.988;2023-09-18T14:37:39;20.30;1.00
262;DHT22;114;48.260;10.988;2023-09-18T14:40:05;20.30;1.00
262;DHT22;114;48.260;10.988;2023-09-18T14:42:31;20.10;1.00
262;DHT22;114;48.260;10.988;2023-09-18T14:44:57;20.20;1.00
262;DHT22;114;48.260;10.988;2023-09-18T14:47:22;20.30;1.00
262;DHT22;114;48.260;10.988;2023-09-18T14:49:48;20.30;1.00
262;DHT22;114;48.260;10.988;2023-09-18T14:52:14;20.30;1.00
262;DHT22;114;48.260;10.988;2023-09-18T14:54:41;20.30;1.00
262;DHT22;114;48.260;10.988;2023-09-18T14:57:07;20.30;1.00
262;DHT22;114;48.260;10.988;2023-09-18T14:59:33;20.40;1.00
262;DHT22;114;48.260;10.988;2023-09-18T15:01:58;20.60;1.00
262;DHT22;114;48.260;10.988;2023-09-18T15:04:24;20.70;1.00
262;DHT22;114;48.260;10.988;2023-09-18T15:06:50;20.70;1.00
262;DHT22;114;48.260;10.988;2023-09-18T15:09:16;20.60;1.00
262;DHT22;114;48.260;10.988;2023-09-18T15:11:43;20.50;1.00
262;DHT22;114;48.260;10.988;2023-09-18T15:14:08;20.50;1.00
262;DHT22;114;48.260;10.988;2023-09-18T15:16:35;20.60;1.00
262;DHT22;114;48.260;10.988;2023-09-18T15:19:01;20.70;1.00
262;DHT22;114;48.260;10.988;2023-09-18T15:21:30;20.60;1.00
262;DHT22;114;48.260;10.988;2023-09-18T15:23:55;20.40;1.00
262;DHT22;114;48.260;10.988;2023-09-18T15:26:22;20.30;1.00
262;DHT22;114;48.260;10.988;2023-09-18T15:28:48;20.30;1.00
262;DHT22;114;48.260;10.988;2023-09-18T15:31:14;20.20;1.00
262;DHT22;114;48.260;10.988;2023-09-18T15:33:40;20.20;1.00
262;DHT22;114;48.260;10.988;2023-09-18T15:36:07;20.20;1.00
262;DHT22;114;48.260;10.988;2023-09-18T15:38:33;20.30;1.00
262;DHT22;114;48.260;10.988;2023-09-18T15:41:00;20.30;1.00
262;DHT22;114;48.260;10.988;2023-09-18T15:43:25;20.40;1.00
262;DHT22;114;48.260;10.988;2023-09-18T15:45:53;20.60;1.00
262;DHT22;114;48.260;10.988;2023-09-18T15:48:18;20.70;1.00
262;DHT22;114;48.260;10.988;2023-09-18T15:50:44;20.70;1.00
262;DHT22;114;48.260;10.988;2023-09-18T15:53:10;20.70;1.00
262;DHT22;114;48.260;10.988;2023-09-18T15:55:36;20.80;1.00
262;DHT22;114;48.260;10.988;2023-09-18T15:58:02;20.80;1.00
262;DHT22;114;48.260;10.988;2023-09-18T16:00:28;20.80;1.00
262;DHT22;114;48.260;10.988;2023-09-18T16:02:54;20.80;1.00
262;DHT22;114;48.260;10.988;2023-09-18T16:05:21;20.90;1.00
262;DHT22;114;48.260;10.988;2023-09-18T16:07:53;21.10;1.00
262;DHT22;114;48.260;10.988;2023-09-18T16:10:26;21.10;1.00
262;DHT22;114;48.260;10.988;2023-09-18T16:12:52;21.10;1.00
262;DHT22;114;48.260;10.988;2023-09-18T16:15:17;21.00;1.00
262;DHT22;114;48.260;10.988;2023-09-18T16:17:44;20.80;1.00
262;DHT22;114;48.260;10.988;2023-09-18T16:20:10;20.70;1.00
262;DHT22;114;48.260;10.988;2023-09-18T16:22:36;20.60;1.00
262;DHT22;114;48.260;10.988;2023-09-18T16:25:03;20.30;1.00
262;DHT22;114;48.260;10.988;2023-09-18T16:27:28;20.10;1.00
262;DHT22;114;48.260;10.988;2023-09-18T16:29:54;20.00;1.00
262;DHT22;114;48.260;10.988;2023-09-18T16:32:21;19.80;1.00
262;DHT22;114;48.260;10.988;2023-09-18T16:34:46;19.70;1.00
262;DHT22;114;48.260;10.988;2023-09-18T16:37:13;19.60;1.00
262;DHT22;114;48.260;10.988;2023-09-18T16:39:40;19.40;1.00
262;DHT22;114;48.260;10.988;2023-09-18T16:42:07;19.30;1.00